createdAt,value
2022-12-14T00:00:04.808Z,368.00
2022-12-14T00:01:04.790Z,368.00
2022-12-14T00:02:04.923Z,364.00
2022-12-14T00:03:04.934Z,366.00
2022-12-14T00:04:04.766Z,364.00
2022-12-14T00:05:04.753Z,360.00
2022-12-14T00:06:04.728Z,374.00
2022-12-14T00:07:04.732Z,375.00
2022-12-14T00:08:04.731Z,368.00
2022-12-14T00:09:04.721Z,370.00
2022-12-14T00:10:04.697Z,374.00
2022-12-14T00:11:04.698Z,367.00
2022-12-14T00:12:04.673Z,367.00
2022-12-14T00:13:04.692Z,363.00
2022-12-14T00:14:04.649Z,364.00
2022-12-14T00:15:04.694Z,365.00
2022-12-14T00:16:04.710Z,364.00
2022-12-14T00:17:04.607Z,370.00
2022-12-14T00:18:04.662Z,377.00
2022-12-14T00:19:04.682Z,375.00
2022-12-14T00:20:04.648Z,367.00
2022-12-14T00:21:04.660Z,370.00
2022-12-14T00:22:04.600Z,369.00
2022-12-14T00:23:04.602Z,366.00
2022-12-14T00:24:04.564Z,366.00
2022-12-14T00:25:04.680Z,366.00
2022-12-14T00:26:04.528Z,363.00
2022-12-14T00:27:04.556Z,362.00
2022-12-14T00:28:04.452Z,364.00
2022-12-14T00:29:04.468Z,364.00
2022-12-14T00:30:04.430Z,363.00
2022-12-14T00:31:04.496Z,365.00
2022-12-14T00:32:04.421Z,370.00
2022-12-14T00:33:04.419Z,372.00
2022-12-14T00:34:04.420Z,374.00
2022-12-14T00:35:04.372Z,374.00
2022-12-14T00:36:04.364Z,374.00
2022-12-14T00:37:04.358Z,372.00
2022-12-14T00:38:04.334Z,368.00
2022-12-14T00:39:04.349Z,361.00
2022-12-14T00:40:04.321Z,356.00
2022-12-14T00:41:04.338Z,354.00
2022-12-14T00:42:04.310Z,354.00
2022-12-14T00:43:04.291Z,352.00
2022-12-14T00:44:04.276Z,353.00
2022-12-14T00:45:04.267Z,356.00
2022-12-14T00:46:04.311Z,359.00
2022-12-14T00:47:04.240Z,364.00
2022-12-14T00:48:04.244Z,372.00
2022-12-14T00:49:04.230Z,375.00
2022-12-14T00:50:04.203Z,375.00
2022-12-14T00:51:04.206Z,376.00
2022-12-14T00:52:04.160Z,378.00
2022-12-14T00:53:04.160Z,378.00
2022-12-14T00:54:04.160Z,382.00
2022-12-14T00:55:04.142Z,383.00
2022-12-14T00:56:04.161Z,377.00
2022-12-14T00:57:04.123Z,384.00
2022-12-14T00:58:04.096Z,386.00
2022-12-14T00:59:04.079Z,380.00
2022-12-14T01:00:04.066Z,374.00
2022-12-14T01:01:04.070Z,375.00
2022-12-14T01:02:04.121Z,376.00
2022-12-14T01:03:04.026Z,380.00
2022-12-14T01:04:04.046Z,380.00
2022-12-14T01:05:04.021Z,380.00
2022-12-14T01:06:03.992Z,379.00
2022-12-14T01:07:03.975Z,380.00
2022-12-14T01:08:03.975Z,380.00
2022-12-14T01:09:03.960Z,375.00
2022-12-14T01:10:03.956Z,373.00
2022-12-14T01:11:03.945Z,373.00
2022-12-14T01:12:03.932Z,372.00
2022-12-14T01:13:03.907Z,376.00
2022-12-14T01:14:03.894Z,378.00
2022-12-14T01:15:03.899Z,377.00
2022-12-14T01:16:03.942Z,374.00
2022-12-14T01:17:03.858Z,379.00
2022-12-14T01:18:03.853Z,379.00
2022-12-14T01:19:03.828Z,377.00
2022-12-14T01:20:03.828Z,373.00
2022-12-14T01:21:03.832Z,377.00
2022-12-14T01:22:03.794Z,376.00
2022-12-14T01:23:03.779Z,375.00
2022-12-14T01:24:03.786Z,380.00
2022-12-14T01:25:03.799Z,379.00
2022-12-14T01:26:03.752Z,382.00
2022-12-14T01:27:03.730Z,383.00
2022-12-14T01:28:03.726Z,382.00
2022-12-14T01:29:03.742Z,381.00
2022-12-14T01:30:03.709Z,374.00
2022-12-14T01:31:03.734Z,373.00
2022-12-14T01:32:03.678Z,374.00
2022-12-14T01:33:03.663Z,373.00
2022-12-14T01:34:03.667Z,383.00
2022-12-14T01:35:03.641Z,382.00
2022-12-14T01:36:03.632Z,385.00
2022-12-14T01:37:03.624Z,384.00
2022-12-14T01:38:03.608Z,383.00
2022-12-14T01:39:03.606Z,375.00
2022-12-14T01:40:03.576Z,375.00
2022-12-14T01:41:03.572Z,376.00
2022-12-14T01:42:03.582Z,372.00
2022-12-14T01:43:03.552Z,366.00
2022-12-14T01:44:03.533Z,369.00
2022-12-14T01:45:03.504Z,374.00
2022-12-14T01:46:03.558Z,376.00
2022-12-14T01:47:08.819Z,372.00
2022-12-14T01:48:03.531Z,365.00
2022-12-14T01:49:03.463Z,371.00
2022-12-14T01:50:03.468Z,380.00
2022-12-14T01:51:03.432Z,372.00
2022-12-14T01:52:03.415Z,366.00
2022-12-14T01:53:03.433Z,364.00
2022-12-14T01:54:03.399Z,365.00
2022-12-14T01:55:03.384Z,364.00
2022-12-14T01:56:03.408Z,368.00
2022-12-14T01:57:03.360Z,365.00
2022-12-14T01:58:03.360Z,366.00
2022-12-14T01:59:03.355Z,371.00
2022-12-14T02:00:07.106Z,372.00
2022-12-14T02:01:03.314Z,370.00
2022-12-14T02:02:03.404Z,371.00
2022-12-14T02:03:03.391Z,364.00
2022-12-14T02:04:03.292Z,369.00
2022-12-14T02:05:03.262Z,376.00
2022-12-14T02:06:03.265Z,384.00
2022-12-14T02:07:03.235Z,378.00
2022-12-14T02:08:03.227Z,379.00
2022-12-14T02:09:03.219Z,376.00
2022-12-14T02:10:03.202Z,377.00
2022-12-14T02:11:03.191Z,380.00
2022-12-14T02:12:03.169Z,380.00
2022-12-14T02:13:03.190Z,376.00
2022-12-14T02:14:03.163Z,381.00
2022-12-14T02:15:03.161Z,378.00
2022-12-14T02:16:03.184Z,378.00
2022-12-14T02:17:03.119Z,375.00
2022-12-14T02:18:03.100Z,384.00
2022-12-14T02:19:03.102Z,378.00
2022-12-14T02:20:03.092Z,377.00
2022-12-14T02:21:03.084Z,376.00
2022-12-14T02:22:03.070Z,376.00
2022-12-14T02:23:03.065Z,373.00
2022-12-14T02:24:03.045Z,378.00
2022-12-14T02:25:03.022Z,379.00
2022-12-14T02:26:03.019Z,375.00
2022-12-14T02:27:03.021Z,378.00
2022-12-14T02:28:03.025Z,376.00
2022-12-14T02:29:02.965Z,372.00
2022-12-14T02:30:02.962Z,370.00
2022-12-14T02:31:03.012Z,364.00
2022-12-14T02:32:02.924Z,357.00
2022-12-14T02:33:02.922Z,354.00
2022-12-14T02:34:02.960Z,332.00
2022-12-14T02:35:02.898Z,332.00
2022-12-14T02:36:02.906Z,318.00
2022-12-14T02:37:02.892Z,300.00
2022-12-14T02:38:02.858Z,297.00
2022-12-14T02:39:02.884Z,303.00
2022-12-14T02:40:02.845Z,322.00
2022-12-14T02:41:02.842Z,263.00
2022-12-14T02:42:02.813Z,251.00
2022-12-14T02:43:02.821Z,258.00
2022-12-14T02:44:02.794Z,274.00
2022-12-14T02:45:02.772Z,310.00
2022-12-14T02:46:02.778Z,311.00
2022-12-14T02:47:02.819Z,328.00
2022-12-14T02:48:02.735Z,349.00
2022-12-14T02:49:02.740Z,359.00
2022-12-14T02:50:02.722Z,353.00
2022-12-14T02:51:02.707Z,335.00
2022-12-14T02:52:02.710Z,335.00
2022-12-14T02:53:02.675Z,336.00
2022-12-14T02:54:02.698Z,347.00
2022-12-14T02:55:02.649Z,360.00
2022-12-14T02:56:02.632Z,360.00
2022-12-14T02:57:02.657Z,363.00
2022-12-14T02:58:02.633Z,370.00
2022-12-14T02:59:02.603Z,367.00
2022-12-14T03:00:02.605Z,371.00
2022-12-14T03:01:02.602Z,373.00
2022-12-14T03:02:02.648Z,375.00
2022-12-14T03:03:02.624Z,375.00
2022-12-14T03:04:02.581Z,376.00
2022-12-14T03:05:02.548Z,383.00
2022-12-14T03:06:02.524Z,371.00
2022-12-14T03:07:02.558Z,372.00
2022-12-14T03:08:02.489Z,376.00
2022-12-14T03:09:02.499Z,377.00
2022-12-14T03:10:02.473Z,379.00
2022-12-14T03:11:02.453Z,384.00
2022-12-14T03:12:02.443Z,382.00
2022-12-14T03:13:02.442Z,383.00
2022-12-14T03:14:02.437Z,382.00
2022-12-14T03:15:02.429Z,381.00
2022-12-14T03:16:02.454Z,375.00
2022-12-14T03:17:02.400Z,378.00
2022-12-14T03:18:02.381Z,380.00
2022-12-14T03:19:02.368Z,377.00
2022-12-14T03:20:02.356Z,376.00
2022-12-14T03:21:02.346Z,379.00
2022-12-14T03:22:02.327Z,375.00
2022-12-14T03:23:02.311Z,381.00
2022-12-14T03:24:02.283Z,378.00
2022-12-14T03:25:02.283Z,377.00
2022-12-14T03:26:02.289Z,381.00
2022-12-14T03:27:02.275Z,375.00
2022-12-14T03:28:02.237Z,378.00
2022-12-14T03:29:02.231Z,373.00
2022-12-14T03:30:02.213Z,376.00
2022-12-14T03:31:02.216Z,370.00
2022-12-14T03:32:02.189Z,366.00
2022-12-14T03:33:02.181Z,366.00
2022-12-14T03:34:02.192Z,369.00
2022-12-14T03:35:02.156Z,372.00
2022-12-14T03:36:02.164Z,369.00
2022-12-14T03:37:02.180Z,366.00
2022-12-14T03:38:02.117Z,374.00
2022-12-14T03:39:02.127Z,373.00
2022-12-14T03:40:02.112Z,371.00
2022-12-14T03:41:02.085Z,373.00
2022-12-14T03:42:02.064Z,376.00
2022-12-14T03:43:02.090Z,382.00
2022-12-14T03:44:02.104Z,377.00
2022-12-14T03:45:02.034Z,376.00
2022-12-14T03:46:02.082Z,374.00
2022-12-14T03:47:02.035Z,370.00
2022-12-14T03:48:02.008Z,368.00
2022-12-14T03:49:01.987Z,371.00
2022-12-14T03:50:01.984Z,371.00
2022-12-14T03:51:01.982Z,371.00
2022-12-14T03:52:01.941Z,369.00
2022-12-14T03:53:01.969Z,370.00
2022-12-14T03:54:01.942Z,370.00
2022-12-14T03:55:01.931Z,374.00
2022-12-14T03:56:01.904Z,377.00
2022-12-14T03:57:01.909Z,370.00
2022-12-14T03:58:01.917Z,368.00
2022-12-14T03:59:01.884Z,368.00
2022-12-14T04:00:01.854Z,376.00
2022-12-14T04:01:01.871Z,379.00
2022-12-14T04:02:01.918Z,374.00
2022-12-14T04:03:01.876Z,381.00
2022-12-14T04:04:01.846Z,376.00
2022-12-14T04:05:01.824Z,371.00
2022-12-14T04:06:01.790Z,372.00
2022-12-14T04:07:01.763Z,366.00
2022-12-14T04:08:01.771Z,364.00
2022-12-14T04:09:01.755Z,362.00
2022-12-14T04:10:01.729Z,363.00
2022-12-14T04:11:01.720Z,365.00
2022-12-14T04:12:01.700Z,376.00
2022-12-14T04:13:01.694Z,375.00
2022-12-14T04:14:01.685Z,375.00
2022-12-14T04:15:01.706Z,378.00
2022-12-14T04:16:01.655Z,371.00
2022-12-14T04:17:01.655Z,366.00
2022-12-14T04:18:01.643Z,367.00
2022-12-14T04:19:01.632Z,372.00
2022-12-14T04:20:01.623Z,375.00
2022-12-14T04:21:01.601Z,375.00
2022-12-14T04:22:01.594Z,374.00
2022-12-14T04:23:01.566Z,375.00
2022-12-14T04:24:01.560Z,372.00
2022-12-14T04:25:01.558Z,370.00
2022-12-14T04:26:01.564Z,368.00
2022-12-14T04:27:01.512Z,367.00
2022-12-14T04:28:01.528Z,365.00
2022-12-14T04:29:01.514Z,363.00
2022-12-14T04:30:01.481Z,371.00
2022-12-14T04:31:02.217Z,379.00
2022-12-14T04:32:01.571Z,374.00
2022-12-14T04:33:01.468Z,378.00
2022-12-14T04:34:01.470Z,367.00
2022-12-14T04:35:01.421Z,374.00
2022-12-14T04:36:01.441Z,370.00
2022-12-14T04:37:01.419Z,371.00
2022-12-14T04:38:01.402Z,367.00
2022-12-14T04:39:01.383Z,372.00
2022-12-14T04:40:01.389Z,373.00
2022-12-14T04:41:01.371Z,379.00
2022-12-14T04:42:01.350Z,371.00
2022-12-14T04:43:01.323Z,366.00
2022-12-14T04:44:01.307Z,374.00
2022-12-14T04:45:01.323Z,372.00
2022-12-14T04:46:01.399Z,373.00
2022-12-14T04:47:01.317Z,375.00
2022-12-14T04:48:01.284Z,374.00
2022-12-14T04:49:01.252Z,379.00
2022-12-14T04:50:01.237Z,377.00
2022-12-14T04:51:01.222Z,376.00
2022-12-14T04:52:05.205Z,374.00
2022-12-14T04:53:01.224Z,375.00
2022-12-14T04:54:01.186Z,374.00
2022-12-14T04:55:01.169Z,380.00
2022-12-14T04:56:01.179Z,379.00
2022-12-14T04:57:01.177Z,380.00
2022-12-14T04:58:01.160Z,377.00
2022-12-14T04:59:01.128Z,372.00
2022-12-14T05:00:01.123Z,374.00
2022-12-14T05:01:01.126Z,378.00
2022-12-14T05:02:01.329Z,377.00
2022-12-14T05:03:01.179Z,377.00
2022-12-14T05:04:01.075Z,374.00
2022-12-14T05:05:01.059Z,382.00
2022-12-14T05:06:01.046Z,378.00
2022-12-14T05:07:01.039Z,373.00
2022-12-14T05:08:01.017Z,376.00
2022-12-14T05:09:01.001Z,380.00
2022-12-14T05:10:01.005Z,369.00
2022-12-14T05:11:30.161Z,371.00
2022-12-14T05:12:00.989Z,375.00
2022-12-14T05:13:00.951Z,372.00
2022-12-14T05:14:00.996Z,374.00
2022-12-14T05:15:00.938Z,373.00
2022-12-14T05:16:00.915Z,367.00
2022-12-14T05:17:06.473Z,369.00
2022-12-14T05:18:00.934Z,372.00
2022-12-14T05:19:00.913Z,373.00
2022-12-14T05:20:00.869Z,366.00
2022-12-14T05:21:00.900Z,374.00
2022-12-14T05:22:00.867Z,378.00
2022-12-14T05:23:00.830Z,374.00
2022-12-14T05:24:00.882Z,365.00
2022-12-14T05:25:00.840Z,369.00
2022-12-14T05:26:00.814Z,372.00
2022-12-14T05:27:00.899Z,369.00
2022-12-14T05:28:00.792Z,370.00
2022-12-14T05:29:00.772Z,373.00
2022-12-14T05:30:00.813Z,365.00
2022-12-14T05:31:00.782Z,368.00
2022-12-14T05:32:00.748Z,368.00
2022-12-14T05:33:00.736Z,372.00
2022-12-14T05:34:00.754Z,374.00
2022-12-14T05:35:00.711Z,373.00
2022-12-14T05:36:00.681Z,376.00
2022-12-14T05:37:00.691Z,378.00
2022-12-14T05:38:00.659Z,377.00
2022-12-14T05:39:00.639Z,385.00
2022-12-14T05:40:00.639Z,380.00
2022-12-14T05:41:00.608Z,377.00
2022-12-14T05:42:00.623Z,372.00
2022-12-14T05:43:00.607Z,376.00
2022-12-14T05:44:00.577Z,374.00
2022-12-14T05:45:00.577Z,374.00
2022-12-14T05:46:00.626Z,379.00
2022-12-14T05:47:00.566Z,385.00
2022-12-14T05:48:00.556Z,383.00
2022-12-14T05:49:00.543Z,378.00
2022-12-14T05:50:00.525Z,377.00
2022-12-14T05:51:00.564Z,364.00
2022-12-14T05:52:00.510Z,369.00
2022-12-14T05:53:00.463Z,374.00
2022-12-14T05:54:00.456Z,377.00
2022-12-14T05:55:04.048Z,376.00
2022-12-14T05:56:00.463Z,372.00
2022-12-14T05:57:00.453Z,376.00
2022-12-14T05:58:00.410Z,373.00
2022-12-14T05:59:00.417Z,376.00
2022-12-14T06:00:00.421Z,379.00
2022-12-14T06:01:00.379Z,369.00
2022-12-14T06:02:00.475Z,372.00
2022-12-14T06:03:00.395Z,372.00
2022-12-14T06:04:00.435Z,369.00
2022-12-14T06:05:00.332Z,371.00
2022-12-14T06:06:00.327Z,370.00
2022-12-14T06:07:00.310Z,371.00
2022-12-14T06:08:00.283Z,366.00
2022-12-14T06:09:00.283Z,370.00
2022-12-14T06:10:00.279Z,375.00
2022-12-14T06:11:00.258Z,379.00
2022-12-14T06:12:00.250Z,378.00
2022-12-14T06:13:00.257Z,381.00
2022-12-14T06:14:00.237Z,378.00
2022-12-14T06:15:00.204Z,376.00
2022-12-14T06:16:00.267Z,374.00
2022-12-14T06:17:00.185Z,370.00
2022-12-14T06:18:00.171Z,370.00
2022-12-14T06:19:00.145Z,359.00
2022-12-14T06:20:00.209Z,358.00
2022-12-14T06:21:00.130Z,359.00
2022-12-14T06:22:00.119Z,368.00
2022-12-14T06:23:00.103Z,374.00
2022-12-14T06:24:00.105Z,377.00
2022-12-14T06:25:00.092Z,376.00
2022-12-14T06:26:00.081Z,372.00
2022-12-14T06:27:00.044Z,373.00
2022-12-14T06:28:00.076Z,373.00
2022-12-14T06:29:00.025Z,374.00
2022-12-14T06:30:00.025Z,375.00
2022-12-14T06:31:00.070Z,370.00
2022-12-14T06:32:00.015Z,381.00
2022-12-14T06:32:59.987Z,379.00
2022-12-14T06:33:59.975Z,376.00
2022-12-14T06:34:59.964Z,370.00
2022-12-14T06:35:59.968Z,365.00
2022-12-14T06:36:59.939Z,368.00
2022-12-14T06:37:59.921Z,370.00
2022-12-14T06:38:59.906Z,368.00
2022-12-14T06:39:59.892Z,379.00
2022-12-14T06:40:59.909Z,375.00
2022-12-14T06:41:59.918Z,372.00
2022-12-14T06:42:59.864Z,374.00
2022-12-14T06:43:59.858Z,374.00
2022-12-14T06:44:59.896Z,373.00
2022-12-14T06:45:59.893Z,374.00
2022-12-14T06:47:00.133Z,376.00
2022-12-14T06:47:59.809Z,379.00
2022-12-14T06:48:59.801Z,379.00
2022-12-14T06:49:59.799Z,383.00
2022-12-14T06:50:59.768Z,377.00
2022-12-14T06:51:59.770Z,375.00
2022-12-14T06:52:59.874Z,372.00
2022-12-14T06:53:59.761Z,382.00
2022-12-14T06:54:59.700Z,380.00
2022-12-14T06:55:59.711Z,378.00
2022-12-14T06:56:59.695Z,379.00
2022-12-14T06:57:59.672Z,380.00
2022-12-14T06:58:59.723Z,380.00
2022-12-14T06:59:59.676Z,374.00
2022-12-14T07:00:59.628Z,373.00
2022-12-14T07:01:59.717Z,370.00
2022-12-14T07:02:59.796Z,370.00
2022-12-14T07:03:59.632Z,375.00
2022-12-14T07:04:59.638Z,367.00
2022-12-14T07:05:59.578Z,376.00
2022-12-14T07:06:59.554Z,376.00
2022-12-14T07:07:59.568Z,366.00
2022-12-14T07:08:59.551Z,374.00
2022-12-14T07:09:59.522Z,380.00
2022-12-14T07:11:02.405Z,378.00
2022-12-14T07:11:59.532Z,377.00
2022-12-14T07:12:59.482Z,373.00
2022-12-14T07:13:59.684Z,369.00
2022-12-14T07:14:59.467Z,374.00
2022-12-14T07:15:59.536Z,359.00
2022-12-14T07:16:59.465Z,362.00
2022-12-14T07:17:59.420Z,367.00
2022-12-14T07:18:59.413Z,375.00
2022-12-14T07:19:59.472Z,379.00
2022-12-14T07:20:59.400Z,377.00
2022-12-14T07:21:59.433Z,382.00
2022-12-14T07:22:59.368Z,377.00
2022-12-14T07:23:59.366Z,373.00
2022-12-14T07:24:59.347Z,385.00
2022-12-14T07:25:59.440Z,379.00
2022-12-14T07:26:59.350Z,379.00
2022-12-14T07:27:59.338Z,379.00
2022-12-14T07:28:59.313Z,381.00
2022-12-14T07:29:59.282Z,378.00
2022-12-14T07:30:59.321Z,381.00
2022-12-14T07:31:59.420Z,381.00
2022-12-14T07:32:59.250Z,376.00
2022-12-14T07:33:59.238Z,377.00
2022-12-14T07:34:59.237Z,378.00
2022-12-14T07:35:59.234Z,379.00
2022-12-14T07:36:59.201Z,380.00
2022-12-14T07:37:59.184Z,378.00
2022-12-14T07:38:59.180Z,372.00
2022-12-14T07:39:59.173Z,373.00
2022-12-14T07:40:59.172Z,372.00
2022-12-14T07:41:59.150Z,374.00
2022-12-14T07:42:59.116Z,370.00
2022-12-14T07:43:59.124Z,369.00
2022-12-14T07:44:59.788Z,374.00
2022-12-14T07:45:59.160Z,377.00
2022-12-14T07:46:59.144Z,371.00
2022-12-14T07:47:59.067Z,374.00
2022-12-14T07:48:59.050Z,374.00
2022-12-14T07:49:59.038Z,373.00
2022-12-14T07:50:59.049Z,375.00
2022-12-14T07:51:59.036Z,350.00
2022-12-14T07:52:58.998Z,321.00
2022-12-14T07:53:58.988Z,248.00
2022-12-14T07:54:59.017Z,241.00
2022-12-14T07:55:58.976Z,254.00
2022-12-14T07:56:59.041Z,304.00
2022-12-14T07:57:58.953Z,310.00
2022-12-14T07:58:58.949Z,411.00
2022-12-14T07:59:58.926Z,413.00
2022-12-14T08:00:58.894Z,413.00
2022-12-14T08:01:59.041Z,430.00
2022-12-14T08:02:58.913Z,273.00
2022-12-14T08:03:58.860Z,301.00
2022-12-14T08:04:58.945Z,438.00
2022-12-14T08:05:58.961Z,362.00
2022-12-14T08:06:58.825Z,312.00
2022-12-14T08:07:58.831Z,308.00
2022-12-14T08:08:58.876Z,391.00
2022-12-14T08:09:58.792Z,394.00
2022-12-14T08:10:58.797Z,355.00
2022-12-14T08:11:58.791Z,350.00
2022-12-14T08:12:58.756Z,350.00
2022-12-14T08:13:58.758Z,353.00
2022-12-14T08:14:58.723Z,353.00
2022-12-14T08:15:58.792Z,348.00
2022-12-14T08:16:58.713Z,350.00
2022-12-14T08:17:58.755Z,363.00
2022-12-14T08:18:58.676Z,399.00
2022-12-14T08:19:58.666Z,373.00
2022-12-14T08:20:58.748Z,335.00
2022-12-14T08:21:58.639Z,325.00
2022-12-14T08:22:58.617Z,320.00
2022-12-14T08:23:58.612Z,318.00
2022-12-14T08:24:58.604Z,317.00
2022-12-14T08:25:58.586Z,313.00
2022-12-14T08:26:58.604Z,320.00
2022-12-14T08:27:58.590Z,322.00
2022-12-14T08:28:58.568Z,324.00
2022-12-14T08:29:58.567Z,320.00
2022-12-14T08:30:58.552Z,320.00
2022-12-14T08:31:58.618Z,318.00
2022-12-14T08:32:58.611Z,320.00
2022-12-14T08:33:58.499Z,318.00
2022-12-14T08:34:58.476Z,315.00
2022-12-14T08:35:58.453Z,315.00
2022-12-14T08:36:58.478Z,316.00
2022-12-14T08:37:58.460Z,323.00
2022-12-14T08:38:58.494Z,356.00
2022-12-14T08:39:58.431Z,386.00
2022-12-14T08:40:58.413Z,271.00
2022-12-14T08:41:58.402Z,316.00
2022-12-14T08:42:58.428Z,328.00
2022-12-14T08:43:58.366Z,390.00
2022-12-14T08:44:58.864Z,389.00
2022-12-14T08:45:58.333Z,351.00
2022-12-14T08:46:58.469Z,259.00
2022-12-14T08:47:58.322Z,259.00
2022-12-14T08:48:58.459Z,268.00
2022-12-14T08:49:58.285Z,270.00
2022-12-14T08:50:58.286Z,276.00
2022-12-14T08:51:58.274Z,280.00
2022-12-14T08:52:58.257Z,223.00
2022-12-14T08:53:58.268Z,232.00
2022-12-14T08:54:58.261Z,241.00
2022-12-14T08:56:00.208Z,350.00
2022-12-14T08:56:58.225Z,375.00
2022-12-14T08:57:58.198Z,310.00
2022-12-14T08:58:58.189Z,352.00
2022-12-14T09:00:02.471Z,324.00
2022-12-14T09:00:58.177Z,321.00
2022-12-14T09:01:58.351Z,317.00
2022-12-14T09:02:58.209Z,325.00
2022-12-14T09:03:58.130Z,420.00
2022-12-14T09:04:58.106Z,354.00
2022-12-14T09:05:58.143Z,350.00
2022-12-14T09:06:58.080Z,353.00
2022-12-14T09:07:58.073Z,349.00
2022-12-14T09:08:58.081Z,368.00
2022-12-14T09:09:58.064Z,425.00
2022-12-14T09:10:58.016Z,386.00
2022-12-14T09:11:58.017Z,370.00
2022-12-14T09:12:58.022Z,354.00
2022-12-14T09:13:57.997Z,356.00
2022-12-14T09:14:58.042Z,357.00
2022-12-14T09:15:58.061Z,399.00
2022-12-14T09:16:57.956Z,420.00
2022-12-14T09:17:57.941Z,357.00
2022-12-14T09:18:57.951Z,318.00
2022-12-14T09:19:57.904Z,312.00
2022-12-14T09:20:57.898Z,311.00
2022-12-14T09:21:57.942Z,372.00
2022-12-14T09:22:57.911Z,378.00
2022-12-14T09:23:59.821Z,369.00
2022-12-14T09:24:57.841Z,321.00
2022-12-14T09:25:57.894Z,318.00
2022-12-14T09:26:57.841Z,317.00
2022-12-14T09:27:57.820Z,324.00
2022-12-14T09:28:57.793Z,353.00
2022-12-14T09:29:57.783Z,366.00
2022-12-14T09:30:57.938Z,375.00
2022-12-14T09:31:57.809Z,356.00
2022-12-14T09:32:57.839Z,357.00
2022-12-14T09:33:57.745Z,358.00
2022-12-14T09:34:57.739Z,355.00
2022-12-14T09:35:57.711Z,359.00
2022-12-14T09:36:57.683Z,348.00
2022-12-14T09:37:57.681Z,336.00
2022-12-14T09:38:58.033Z,337.00
2022-12-14T09:39:57.645Z,340.00
2022-12-14T09:40:57.637Z,407.00
2022-12-14T09:42:00.842Z,419.00
2022-12-14T09:42:57.625Z,366.00
2022-12-14T09:43:57.635Z,366.00
2022-12-14T09:44:57.604Z,359.00
2022-12-14T09:45:57.682Z,358.00
2022-12-14T09:46:57.577Z,351.00
2022-12-14T09:47:57.560Z,348.00
2022-12-14T09:48:57.569Z,346.00
2022-12-14T09:49:57.531Z,347.00
2022-12-14T09:50:57.589Z,434.00
2022-12-14T09:51:57.559Z,345.00
2022-12-14T09:52:57.515Z,328.00
2022-12-14T09:54:02.179Z,318.00
2022-12-14T09:54:57.479Z,324.00
2022-12-14T09:55:57.446Z,333.00
2022-12-14T09:56:57.430Z,347.00
2022-12-14T09:57:57.439Z,482.00
2022-12-14T09:58:57.456Z,331.00
2022-12-14T09:59:57.424Z,405.00
2022-12-14T10:00:57.425Z,281.00
2022-12-14T10:03:00.376Z,269.00
2022-12-14T10:03:57.489Z,257.00
2022-12-14T10:04:57.390Z,252.00
2022-12-14T10:05:57.358Z,259.00
2022-12-14T10:06:57.302Z,377.00
2022-12-14T10:07:57.281Z,392.00
2022-12-14T10:08:57.279Z,397.00
2022-12-14T10:09:57.295Z,399.00
2022-12-14T10:10:57.277Z,403.00
2022-12-14T10:11:57.258Z,435.00
2022-12-14T10:12:57.238Z,386.00
2022-12-14T10:13:57.210Z,315.00
2022-12-14T10:14:57.291Z,318.00
2022-12-14T10:15:57.327Z,317.00
2022-12-14T10:16:57.273Z,318.00
2022-12-14T10:17:57.257Z,317.00
2022-12-14T10:19:00.065Z,321.00
2022-12-14T10:19:57.148Z,327.00
2022-12-14T10:20:57.196Z,338.00
2022-12-14T10:21:57.119Z,335.00
2022-12-14T10:22:57.117Z,337.00
2022-12-14T10:23:57.085Z,336.00
2022-12-14T10:24:57.097Z,324.00
2022-12-14T10:25:57.075Z,323.00
2022-12-14T10:26:57.050Z,328.00
2022-12-14T10:28:12.690Z,336.00
2022-12-14T10:29:01.204Z,348.00
2022-12-14T10:29:57.032Z,360.00
2022-12-14T10:30:57.001Z,356.00
2022-12-14T10:31:57.039Z,369.00
2022-12-14T10:32:56.971Z,386.00
2022-12-14T10:33:56.994Z,403.00
2022-12-14T10:34:56.997Z,419.00
2022-12-14T10:35:56.924Z,445.00
2022-12-14T10:36:56.950Z,436.00
2022-12-14T10:37:56.905Z,326.00
2022-12-14T10:38:57.811Z,304.00
2022-12-14T10:39:56.878Z,363.00
2022-12-14T10:40:56.877Z,391.00
2022-12-14T10:41:56.850Z,427.00
2022-12-14T10:42:57.075Z,412.00
2022-12-14T10:43:56.848Z,426.00
2022-12-14T10:45:23.415Z,467.00
2022-12-14T10:45:56.923Z,368.00
2022-12-14T10:46:56.889Z,400.00
2022-12-14T10:47:56.782Z,363.00
2022-12-14T10:48:56.828Z,368.00
2022-12-14T10:49:56.760Z,395.00
2022-12-14T10:50:56.808Z,409.00
2022-12-14T10:51:56.718Z,464.00
2022-12-14T10:52:56.727Z,431.00
2022-12-14T10:53:56.710Z,446.00
2022-12-14T10:54:56.703Z,461.00
2022-12-14T10:55:56.732Z,450.00
2022-12-14T10:56:56.743Z,460.00
2022-12-14T10:57:56.744Z,462.00
2022-12-14T10:58:56.662Z,447.00
2022-12-14T11:00:08.371Z,423.00
2022-12-14T11:00:56.728Z,404.00
2022-12-14T11:01:56.886Z,453.00
2022-12-14T11:02:56.764Z,464.00
2022-12-14T11:03:56.568Z,471.00
2022-12-14T11:04:56.564Z,467.00
2022-12-14T11:05:56.555Z,430.00
2022-12-14T11:06:56.589Z,457.00
2022-12-14T11:07:56.587Z,461.00
2022-12-14T11:08:56.536Z,389.00
2022-12-14T11:09:56.539Z,267.00
2022-12-14T11:10:56.502Z,268.00
2022-12-14T11:11:56.559Z,373.00
2022-12-14T11:12:56.497Z,421.00
2022-12-14T11:13:56.462Z,466.00
2022-12-14T11:14:56.446Z,467.00
2022-12-14T11:15:56.441Z,488.00
2022-12-14T11:16:56.536Z,447.00
2022-12-14T11:17:56.632Z,361.00
2022-12-14T11:18:56.400Z,368.00
2022-12-14T11:19:56.411Z,336.00
2022-12-14T11:20:56.427Z,335.00
2022-12-14T11:21:56.348Z,367.00
2022-12-14T11:22:56.348Z,384.00
2022-12-14T11:23:56.308Z,345.00
2022-12-14T11:24:56.370Z,361.00
2022-12-14T11:25:56.304Z,424.00
2022-12-14T11:26:56.300Z,463.00
2022-12-14T11:27:56.284Z,415.00
2022-12-14T11:28:56.317Z,395.00
2022-12-14T11:29:56.318Z,429.00
2022-12-14T11:30:56.403Z,449.00
2022-12-14T11:31:56.303Z,374.00
2022-12-14T11:32:56.263Z,357.00
2022-12-14T11:33:56.201Z,378.00
2022-12-14T11:34:56.214Z,390.00
2022-12-14T11:35:56.211Z,383.00
2022-12-14T11:36:56.146Z,378.00
2022-12-14T11:37:56.213Z,366.00
2022-12-14T11:38:56.215Z,339.00
2022-12-14T11:39:56.119Z,335.00
2022-12-14T11:40:56.166Z,363.00
2022-12-14T11:41:56.123Z,359.00
2022-12-14T11:42:56.121Z,353.00
2022-12-14T11:43:56.053Z,431.00
2022-12-14T11:44:56.046Z,415.00
2022-12-14T11:45:56.123Z,426.00
2022-12-14T11:46:56.078Z,477.00
2022-12-14T11:47:56.071Z,354.00
2022-12-14T11:48:56.008Z,355.00
2022-12-14T11:49:55.983Z,350.00
2022-12-14T11:50:55.977Z,326.00
2022-12-14T11:51:55.958Z,308.00
2022-12-14T11:52:55.970Z,316.00
2022-12-14T11:53:55.923Z,313.00
2022-12-14T11:54:55.923Z,311.00
2022-12-14T11:55:55.912Z,320.00
2022-12-14T11:56:56.014Z,338.00
2022-12-14T11:57:55.885Z,357.00
2022-12-14T11:58:55.908Z,476.00
2022-12-14T11:59:56.123Z,480.00
2022-12-14T12:00:55.834Z,471.00
2022-12-14T12:01:55.900Z,384.00
2022-12-14T12:02:55.859Z,256.00
2022-12-14T12:03:55.941Z,250.00
2022-12-14T12:04:55.800Z,345.00
2022-12-14T12:05:55.856Z,386.00
2022-12-14T12:07:00.077Z,444.00
2022-12-14T12:07:55.820Z,447.00
2022-12-14T12:08:55.804Z,456.00
2022-12-14T12:09:55.735Z,464.00
2022-12-14T12:11:01.992Z,483.00
2022-12-14T12:11:55.740Z,483.00
2022-12-14T12:12:55.678Z,466.00
2022-12-14T12:13:55.700Z,346.00
2022-12-14T12:14:55.679Z,361.00
2022-12-14T12:15:55.664Z,443.00
2022-12-14T12:16:55.655Z,450.00
2022-12-14T12:17:55.641Z,267.00
2022-12-14T12:18:55.701Z,342.00
2022-12-14T12:19:55.853Z,419.00
2022-12-14T12:20:55.582Z,395.00
2022-12-14T12:21:55.558Z,395.00
2022-12-14T12:22:55.559Z,400.00
2022-12-14T12:23:55.696Z,403.00
2022-12-14T12:25:24.355Z,398.00
2022-12-14T12:25:55.576Z,391.00
2022-12-14T12:26:55.523Z,385.00
2022-12-14T12:27:55.509Z,377.00
2022-12-14T12:28:55.517Z,382.00